Time;durP1;ratioP1;P1;durP2;ratioP2;P2;SDS_P1;SDS_P2;PMS_P1;PMS_P2;Temp;Humidity;BMP_temperature;BMP_pressure;BME280_temperature;BME280_humidity;BME280_pressure;Samples;Min_cycle;Max_cycle;Signal;HPM_P1;HPM_P2
2022/10/08 00:02:52;;;;;;;;;;;;;;;20.57;48.52;96013.31;10501583;28;2309;-46
2022/10/08 00:07:53;;;;;;;;;;;;;;;20.54;48.21;96008.59;10522624;28;1950;-46
2022/10/08 00:12:53;;;;;;;;;;;;;;;20.58;48.33;95998.31;10521703;28;2410;-47
2022/10/08 00:17:53;;;;;;;;;;;;;;;20.56;48.21;95990.69;10521617;28;2432;-47
2022/10/08 00:22:54;;;;;;;;;;;;;;;20.55;48.15;95994.38;10523787;28;1878;-47
2022/10/08 00:27:54;;;;;;;;;;;;;;;20.54;48.22;95998.06;10524082;28;1962;-48
2022/10/08 00:32:55;;;;;;;;;;;;;;;20.53;48.38;96001.75;10518004;28;2438;-46
2022/10/08 00:37:55;;;;;;;;;;;;;;;20.54;48.27;96002.53;10517694;28;1933;-47
2022/10/08 00:42:55;;;;;;;;;;;;;;;20.54;48.38;95992.00;10516051;28;2311;-48
2022/10/08 00:47:57;;;;;;;;;;;;;;;20.54;48.08;95992.00;10520933;28;2415;-48
2022/10/08 00:53:01;;;;;;;;;;;;;;;20.53;48.24;95979.88;10536761;28;2370;-48
2022/10/08 00:58:02;;;;;;;;;;;;;;;20.54;48.41;95977.00;10523343;28;2351;-48
2022/10/08 01:03:03;;;;;;;;;;;;;;;20.53;48.11;95980.69;10541379;28;1896;-46
2022/10/08 01:08:06;;;;;;;;;;;;;;;20.53;48.20;95975.41;10531882;28;1989;-48
2022/10/08 01:13:06;;;;;;;;;;;;;;;20.54;48.16;95970.94;10524378;28;2372;-48
2022/10/08 01:18:08;;;;;;;;;;;;;;;20.51;48.24;95960.94;10526909;28;2329;-46
2022/10/08 01:23:11;;;;;;;;;;;;;;;20.54;48.15;95957.78;10525339;28;2021;-47
2022/10/08 01:28:15;;;;;;;;;;;;;;;20.53;48.05;95951.72;10529204;28;2357;-47
2022/10/08 01:33:17;;;;;;;;;;;;;;;20.52;48.08;95954.63;10528187;28;2432;-45
2022/10/08 01:38:18;;;;;;;;;;;;;;;20.53;47.92;95950.91;10536102;28;2255;-45
2022/10/08 01:43:18;;;;;;;;;;;;;;;20.51;47.98;95945.94;10534213;28;2315;-46
2022/10/08 01:48:28;;;;;;;;;;;;;;;20.52;48.03;95952.00;10528025;28;1949;-45
2022/10/08 01:53:32;;;;;;;;;;;;;;;20.49;48.17;95950.66;10533674;28;2466;-46
2022/10/08 01:58:33;;;;;;;;;;;;;;;20.50;48.00;95954.09;10523254;28;2345;-46
2022/10/08 02:03:33;;;;;;;;;;;;;;;20.49;48.07;95953.31;10521790;28;2014;-47
2022/10/08 02:08:33;;;;;;;;;;;;;;;20.50;48.21;95944.38;10541560;28;1938;-47
2022/10/08 02:13:34;;;;;;;;;;;;;;;20.49;47.96;95941.97;10519783;28;2373;-46
2022/10/08 02:18:41;;;;;;;;;;;;;;;20.47;48.13;95938.81;10517767;28;1962;-47
2022/10/08 02:24:01;;;;;;;;;;;;;;;20.47;48.27;95933.56;10525127;28;1942;-46
2022/10/08 02:29:03;;;;;;;;;;;;;;;20.45;48.18;95936.47;10529056;28;1934;-47
2022/10/08 02:34:22;;;;;;;;;;;;;;;20.46;48.02;95938.06;10533791;28;2311;-47
2022/10/08 02:39:23;;;;;;;;;;;;;;;20.43;47.94;95928.03;10520775;28;2394;-46
2022/10/08 02:44:25;;;;;;;;;;;;;;;20.45;47.97;95933.84;10519964;28;2312;-44
2022/10/08 02:49:27;;;;;;;;;;;;;;;20.45;47.88;95933.84;10533160;28;2339;-46
2022/10/08 02:54:29;;;;;;;;;;;;;;;20.46;47.81;95932.78;10539568;28;2346;-48
2022/10/08 02:59:30;;;;;;;;;;;;;;;20.45;47.93;95936.47;10522115;28;1968;-45
2022/10/08 03:04:31;;;;;;;;;;;;;;;20.43;47.85;95935.94;10526738;28;2314;-48
2022/10/08 03:09:40;;;;;;;;;;;;;;;20.45;47.92;95925.13;10520927;28;2346;-46
2022/10/08 03:14:42;;;;;;;;;;;;;;;20.45;47.54;95931.19;10523420;28;2657;-47
2022/10/08 03:19:42;;;;;;;;;;;;;;;20.46;47.68;95927.53;10518055;28;2337;-49
2022/10/08 03:24:42;;;;;;;;;;;;;;;20.43;47.87;95928.03;10520191;28;1945;-49
2022/10/08 03:29:42;;;;;;;;;;;;;;;20.45;47.74;95933.84;10524354;28;2384;-47
2022/10/08 03:34:43;;;;;;;;;;;;;;;20.45;47.77;95931.19;10517753;28;2307;-47
2022/10/08 03:39:43;;;;;;;;;;;;;;;20.45;47.56;95933.03;10523152;28;1998;-47
2022/10/08 03:44:43;;;;;;;;;;;;;;;20.45;47.62;95931.19;10521195;28;1989;-47
2022/10/08 03:49:43;;;;;;;;;;;;;;;20.45;47.77;95935.66;10534018;28;1983;-48
2022/10/08 03:54:44;;;;;;;;;;;;;;;20.44;47.45;95937.53;10529483;28;2346;-47
2022/10/08 03:59:45;;;;;;;;;;;;;;;20.44;47.66;95934.91;10522079;28;2020;-47
2022/10/08 04:04:46;;;;;;;;;;;;;;;20.43;47.92;95938.56;10530895;28;1984;-45
2022/10/08 04:09:46;;;;;;;;;;;;;;;20.42;47.54;95931.75;10508736;28;2411;-47
2022/10/08 04:14:46;;;;;;;;;;;;;;;20.42;47.61;95937.00;10521779;28;2638;-47
2022/10/08 04:19:46;;;;;;;;;;;;;;;20.41;47.76;95938.06;10521698;28;2329;-48
2022/10/08 04:24:47;;;;;;;;;;;;;;;20.42;47.55;95937.00;10520094;28;1910;-47
2022/10/08 04:29:47;;;;;;;;;;;;;;;20.41;47.65;95927.53;10528213;28;1887;-47
2022/10/08 04:34:47;;;;;;;;;;;;;;;20.41;47.52;95934.63;10520310;28;2477;-46
2022/10/08 04:39:48;;;;;;;;;;;;;;;20.41;47.62;95939.91;10523456;28;2336;-48
2022/10/08 04:44:48;;;;;;;;;;;;;;;20.40;47.70;95933.06;10526936;28;2349;-45
2022/10/08 04:49:48;;;;;;;;;;;;;;;20.39;47.70;95936.75;10530643;28;2475;-45
2022/10/08 04:54:49;;;;;;;;;;;;;;;20.39;47.67;95937.53;10524973;28;2323;-46
2022/10/08 04:59:49;;;;;;;;;;;;;;;20.39;47.71;95948.06;10530153;28;2288;-48
2022/10/08 05:04:49;;;;;;;;;;;;;;;20.38;47.57;95946.47;10527519;28;2348;-49
2022/10/08 05:09:49;;;;;;;;;;;;;;;20.38;47.45;95951.75;10525878;28;1899;-46
2022/10/08 05:14:50;;;;;;;;;;;;;;;20.38;47.66;95956.25;10529532;28;2644;-49
2022/10/08 05:19:50;;;;;;;;;;;;;;;20.38;47.66;95957.00;10533537;28;2324;-47
2022/10/08 05:24:50;;;;;;;;;;;;;;;20.37;47.60;95959.91;10516013;28;2322;-48
2022/10/08 05:29:51;;;;;;;;;;;;;;;20.37;47.39;95960.72;10531521;28;1894;-48
2022/10/08 05:34:51;;;;;;;;;;;;;;;20.37;47.49;95960.72;10523610;28;2600;-50
2022/10/08 05:39:51;;;;;;;;;;;;;;;20.37;47.58;95971.25;10527330;28;1933;-46
2022/10/08 05:44:51;;;;;;;;;;;;;;;20.37;47.50;95973.06;10524370;28;2026;-46
2022/10/08 05:49:52;;;;;;;;;;;;;;;20.37;47.61;95978.34;10525717;28;2377;-48
2022/10/08 05:54:52;;;;;;;;;;;;;;;20.36;47.61;95969.66;10542940;28;2293;-47
2022/10/08 05:59:52;;;;;;;;;;;;;;;20.35;47.67;95973.34;10528801;28;1950;-47
2022/10/08 06:04:52;;;;;;;;;;;;;;;20.36;47.73;95990.72;10526806;28;2053;-47
2022/10/08 06:09:53;;;;;;;;;;;;;;;20.35;47.50;95983.88;10522859;28;2104;-45
2022/10/08 06:14:53;;;;;;;;;;;;;;;20.35;47.65;95983.88;10519441;28;2390;-46
2022/10/08 06:19:53;;;;;;;;;;;;;;;20.35;47.68;95996.25;10526847;28;2072;-48
2022/10/08 06:24:54;;;;;;;;;;;;;;;20.36;47.73;96006.50;10526074;28;2311;-48
2022/10/08 06:29:54;;;;;;;;;;;;;;;20.35;47.67;96007.56;10523406;28;1947;-48
2022/10/08 06:34:54;;;;;;;;;;;;;;;20.35;47.73;96007.56;10519162;28;2074;-48
2022/10/08 06:39:55;;;;;;;;;;;;;;;20.33;47.52;96009.69;10526801;28;1918;-47
2022/10/08 06:44:55;;;;;;;;;;;;;;;20.34;47.48;96018.38;10515230;28;2768;-50
2022/10/08 06:49:55;;;;;;;;;;;;;;;20.34;47.82;96029.69;10505777;28;1953;-50
2022/10/08 06:54:55;;;;;;;;;;;;;;;20.35;47.62;96023.38;10524265;28;2902;-48
2022/10/08 06:59:57;;;;;;;;;;;;;;;20.34;47.59;96034.94;10528080;28;2753;-48
2022/10/08 07:04:58;;;;;;;;;;;;;;;20.35;47.78;96033.09;10530035;28;1941;-46
2022/10/08 07:09:58;;;;;;;;;;;;;;;20.35;47.73;96035.75;10519837;28;2677;-47
2022/10/08 07:14:58;;;;;;;;;;;;;;;20.34;47.81;96037.56;10520072;28;2885;-45
2022/10/08 07:19:58;;;;;;;;;;;;;;;20.36;47.98;96053.13;10514796;28;2601;-45
2022/10/08 07:25:00;;;;;;;;;;;;;;;20.35;47.66;96051.53;10515546;28;2022;-47
2022/10/08 07:30:00;;;;;;;;;;;;;;;20.34;47.79;96056.00;10523356;28;2609;-47
2022/10/08 07:35:00;;;;;;;;;;;;;;;20.35;47.60;96060.22;10522487;28;2951;-45
2022/10/08 07:40:01;;;;;;;;;;;;;;;20.37;47.82;96059.97;10522804;28;1971;-45
2022/10/08 07:45:01;;;;;;;;;;;;;;;20.35;47.66;96062.88;10523339;28;2541;-45
2022/10/08 07:50:03;;;;;;;;;;;;;;;20.37;47.98;96067.84;10522764;28;2745;-47
2022/10/08 07:55:03;;;;;;;;;;;;;;;20.37;47.69;96063.41;10517896;28;2662;-48
2022/10/08 08:00:04;;;;;;;;;;;;;;;20.37;47.83;96066.03;10523615;28;1917;-45
2022/10/08 08:05:04;;;;;;;;;;;;;;;20.37;47.72;96067.84;10510643;28;2632;-45
2022/10/08 08:10:05;;;;;;;;;;;;;;;20.36;47.98;96067.06;10517195;28;2599;-45
2022/10/08 08:15:06;;;;;;;;;;;;;;;20.35;47.78;96075.22;10524212;28;2977;-47
2022/10/08 08:20:11;;;;;;;;;;;;;;;20.36;48.12;96076.84;10513692;28;2753;-48
2022/10/08 08:25:11;;;;;;;;;;;;;;;20.35;48.00;96083.13;10524983;28;2577;-48
2022/10/08 08:30:12;;;;;;;;;;;;;;;20.34;48.18;96077.06;10505854;28;2660;-45
2022/10/08 08:35:12;;;;;;;;;;;;;;;20.34;48.07;96081.56;10524499;28;2655;-45
2022/10/08 08:40:12;;;;;;;;;;;;;;;20.34;48.22;96077.06;10522192;28;2551;-47
2022/10/08 08:45:17;;;;;;;;;;;;;;;20.32;48.19;96081.81;10503312;28;2689;-46
2022/10/08 08:50:33;;;;;;;;;;;;;;;20.32;48.02;96084.44;10519566;28;2603;-45
2022/10/08 08:55:35;;;;;;;;;;;;;;;20.34;48.21;96086.84;10525391;28;1953;-47
2022/10/08 09:00:41;;;;;;;;;;;;;;;20.29;48.02;96084.97;10530735;28;2582;-47
2022/10/08 09:05:42;;;;;;;;;;;;;;;20.29;48.32;96084.97;10533979;28;2646;-44
2022/10/08 09:10:53;;;;;;;;;;;;;;;20.29;48.07;96087.63;10525049;28;1925;-45
2022/10/08 09:15:54;;;;;;;;;;;;;;;20.31;48.16;96096.03;10546678;28;1976;-45
2022/10/08 09:20:54;;;;;;;;;;;;;;;20.37;47.90;96086.28;10543604;27;2085;-45
2022/10/08 09:25:59;;;;;;;;;;;;;;;20.31;48.33;96093.41;10519258;28;2605;-45
2022/10/08 09:31:09;;;;;;;;;;;;;;;20.30;48.08;96094.44;10519157;28;2589;-48
2022/10/08 09:36:09;;;;;;;;;;;;;;;20.30;48.25;96104.97;10526105;28;2605;-45
2022/10/08 09:41:17;;;;;;;;;;;;;;;20.28;48.49;96101.81;10528049;28;2581;-45
2022/10/08 09:46:27;;;;;;;;;;;;;;;20.31;48.21;96096.03;10527563;28;2608;-45
2022/10/08 09:51:27;;;;;;;;;;;;;;;20.34;48.35;96097.38;10522793;28;2638;-45
2022/10/08 09:56:28;;;;;;;;;;;;;;;20.30;48.37;96097.09;10543435;28;2639;-44
2022/10/08 10:01:30;;;;;;;;;;;;;;;20.32;48.30;96094.22;10527529;28;2657;-44
2022/10/08 10:06:36;;;;;;;;;;;;;;;20.33;48.07;96096.56;10528327;28;2725;-47
2022/10/08 10:11:57;;;;;;;;;;;;;;;20.30;48.52;96099.72;10524238;28;2553;-47
2022/10/08 10:16:59;;;;;;;;;;;;;;;20.31;48.37;96098.69;10534170;28;2720;-48
2022/10/08 10:22:10;;;;;;;;;;;;;;;20.30;48.22;96098.94;10524061;28;1965;-46
2022/10/08 10:27:12;;;;;;;;;;;;;;;20.29;48.43;96100.78;10525009;28;2586;-46
2022/10/08 10:32:17;;;;;;;;;;;;;;;20.31;48.52;96103.94;10502595;28;2624;-47
2022/10/08 10:37:18;;;;;;;;;;;;;;;20.29;48.59;96095.50;10526129;28;2493;-46
2022/10/08 10:42:25;;;;;;;;;;;;;;;20.29;48.51;96103.41;10537725;28;2627;-46
2022/10/08 10:47:28;;;;;;;;;;;;;;;20.30;48.68;96096.31;10515541;28;2633;-46
2022/10/08 10:52:32;;;;;;;;;;;;;;;20.28;48.63;96091.28;10501237;28;2663;-44
2022/10/08 10:57:37;;;;;;;;;;;;;;;20.30;48.44;96086.56;10522533;28;2550;-49
2022/10/08 11:02:50;;;;;;;;;;;;;;;20.32;48.31;96087.06;10521512;28;2846;-45
2022/10/08 11:07:54;;;;;;;;;;;;;;;20.30;48.39;96083.16;10537826;28;2640;-46
2022/10/08 11:12:54;;;;;;;;;;;;;;;20.29;48.33;96069.19;10518580;28;2571;-47
2022/10/08 11:17:57;;;;;;;;;;;;;;;20.28;48.41;96072.84;10519583;28;2603;-50
2022/10/08 11:23:13;;;;;;;;;;;;;;;20.29;48.55;96074.47;10523946;28;2583;-47
2022/10/08 11:28:13;;;;;;;;;;;;;;;20.27;48.56;96082.63;10527137;28;2656;-46
2022/10/08 11:33:13;;;;;;;;;;;;;;;20.29;48.74;96074.47;10524274;28;2547;-48
2022/10/08 11:38:19;;;;;;;;;;;;;;;20.28;48.73;96078.91;10540247;28;2546;-46
2022/10/08 11:43:25;;;;;;;;;;;;;;;20.27;48.60;96073.94;10518756;28;2634;-46
2022/10/08 11:48:32;;;;;;;;;;;;;;;20.27;48.64;96071.28;10517511;28;2564;-47
2022/10/08 11:53:32;;;;;;;;;;;;;;;20.28;48.51;96062.34;10534568;28;2552;-48
2022/10/08 11:58:34;;;;;;;;;;;;;;;20.30;48.47;96068.13;10525693;28;2583;-46
2022/10/08 12:03:36;;;;;;;;;;;;;;;20.30;48.58;96056.81;10517806;28;1964;-46
2022/10/08 12:08:55;;;;;;;;;;;;;;;20.28;48.47;96051.81;10529897;28;2064;-45
2022/10/08 12:14:11;;;;;;;;;;;;;;;20.28;48.59;96063.13;10508879;28;2679;-45
2022/10/08 12:19:34;;;;;;;;;;;;;;;20.28;48.60;96057.06;10520053;28;1933;-47
2022/10/08 12:24:37;;;;;;;;;;;;;;;20.26;48.69;96061.81;10518303;28;2616;-46
2022/10/08 12:29:56;;;;;;;;;;;;;;;20.27;48.60;96055.50;10524522;28;2050;-48
2022/10/08 12:34:57;;;;;;;;;;;;;;;20.27;48.48;96053.66;10509457;28;2495;-47
2022/10/08 12:39:57;;;;;;;;;;;;;;;20.25;48.75;96047.88;10515609;28;2648;-46
2022/10/08 12:45:13;;;;;;;;;;;;;;;20.26;48.42;96048.66;10534974;28;2029;-47
2022/10/08 12:50:19;;;;;;;;;;;;;;;20.27;48.81;96042.34;10515488;28;2633;-46
2022/10/08 12:55:20;;;;;;;;;;;;;;;20.27;48.68;96045.78;10514600;28;1976;-47
2022/10/08 13:00:24;;;;;;;;;;;;;;;20.25;48.56;96041.81;10544704;28;1895;-45
2022/10/08 13:05:26;;;;;;;;;;;;;;;20.28;48.52;96036.81;10531495;28;1924;-49
2022/10/08 13:10:27;;;;;;;;;;;;;;;20.25;48.69;96045.25;10535009;28;2665;-48
2022/10/08 13:15:27;;;;;;;;;;;;;;;20.27;48.48;96050.25;10521681;28;1975;-48
2022/10/08 13:20:27;;;;;;;;;;;;;;;20.27;48.82;96055.50;10531226;28;1927;-46
2022/10/08 13:25:32;;;;;;;;;;;;;;;20.27;48.44;96071.28;10542144;28;2599;-48
2022/10/08 13:30:32;;;;;;;;;;;;;;;20.26;48.55;96064.44;10526831;28;1871;-47
2022/10/08 13:35:33;;;;;;;;;;;;;;;20.24;48.78;96062.06;10522095;28;2598;-46
2022/10/08 13:40:33;;;;;;;;;;;;;;;20.26;48.67;96064.44;10538402;28;2733;-47
2022/10/08 13:45:36;;;;;;;;;;;;;;;20.25;48.65;96053.13;10529198;28;1957;-46
2022/10/08 13:50:43;;;;;;;;;;;;;;;20.26;48.72;96053.91;10504244;28;2586;-46
2022/10/08 13:55:44;;;;;;;;;;;;;;;20.24;48.72;96062.06;10523335;28;2588;-46
2022/10/08 14:00:45;;;;;;;;;;;;;;;20.24;48.78;96062.06;10531497;28;1871;-47
2022/10/08 14:05:46;;;;;;;;;;;;;;;20.23;48.72;96065.78;10527029;28;2607;-46
2022/10/08 14:10:46;;;;;;;;;;;;;;;20.23;48.83;96067.63;10522376;28;2094;-46
2022/10/08 14:15:46;;;;;;;;;;;;;;;20.26;48.55;96067.06;10522397;28;2571;-47
2022/10/08 14:20:48;;;;;;;;;;;;;;;20.25;48.76;96068.13;10527129;28;2656;-45
2022/10/08 14:25:49;;;;;;;;;;;;;;;20.24;48.53;96082.34;10530127;28;2600;-45
2022/10/08 14:30:50;;;;;;;;;;;;;;;20.22;48.56;96079.19;10525664;28;2664;-46
2022/10/08 14:35:50;;;;;;;;;;;;;;;20.22;48.60;96079.97;10527508;28;2645;-46
2022/10/08 14:40:51;;;;;;;;;;;;;;;20.23;48.72;96086.03;10545308;28;1899;-45
2022/10/08 14:45:51;;;;;;;;;;;;;;;20.23;48.79;96091.31;10524720;28;2684;-46
2022/10/08 14:50:51;;;;;;;;;;;;;;;20.21;48.65;96088.94;10518768;28;2106;-47
2022/10/08 14:55:51;;;;;;;;;;;;;;;20.24;48.51;96092.88;10519031;28;2543;-45
2022/10/08 15:00:52;;;;;;;;;;;;;;;20.21;48.79;96096.84;10523144;28;2645;-45
2022/10/08 15:05:53;;;;;;;;;;;;;;;20.21;48.64;96093.41;10518683;28;2669;-46
2022/10/08 15:10:53;;;;;;;;;;;;;;;20.21;48.62;96088.16;10519533;28;2959;-46
2022/10/08 15:16:03;;;;;;;;;;;;;;;20.23;48.69;96096.56;10516807;28;1979;-49
2022/10/08 15:21:04;;;;;;;;;;;;;;;20.19;48.58;96098.94;10521342;28;1969;-45
2022/10/08 15:26:04;;;;;;;;;;;;;;;20.19;48.59;96109.47;10521067;28;2670;-47
2022/10/08 15:31:08;;;;;;;;;;;;;;;20.20;48.65;96104.97;10514255;28;2604;-48
2022/10/08 15:36:17;;;;;;;;;;;;;;;20.20;48.59;96103.13;10522179;28;1934;-49
2022/10/08 15:41:18;;;;;;;;;;;;;;;20.21;48.59;96114.47;10518942;28;2546;-48
2022/10/08 15:46:19;;;;;;;;;;;;;;;20.21;48.68;96109.19;10511471;28;2649;-50
2022/10/08 15:51:20;;;;;;;;;;;;;;;20.20;48.53;96115.50;10518935;28;2597;-45
2022/10/08 15:56:20;;;;;;;;;;;;;;;20.20;48.51;96123.41;10504771;28;2610;-45
2022/10/08 16:01:21;;;;;;;;;;;;;;;20.20;48.61;96126.03;10503471;28;2595;-46
2022/10/08 16:06:28;;;;;;;;;;;;;;;20.19;48.86;96127.91;10500757;28;2566;-45
2022/10/08 16:11:32;;;;;;;;;;;;;;;20.20;48.52;96144.47;10530240;28;2018;-46
2022/10/08 16:16:37;;;;;;;;;;;;;;;20.17;48.61;96134.44;10525009;28;2639;-46
2022/10/08 16:21:37;;;;;;;;;;;;;;;20.19;48.72;96142.84;10503538;28;2739;-46
2022/10/08 16:26:38;;;;;;;;;;;;;;;20.18;48.53;96143.91;10517031;28;2660;-45
2022/10/08 16:31:39;;;;;;;;;;;;;;;20.18;48.43;96157.84;10535913;28;2098;-45
2022/10/08 16:36:47;;;;;;;;;;;;;;;20.19;48.69;96163.91;10502370;28;1999;-47
2022/10/08 16:41:47;;;;;;;;;;;;;;;20.20;48.61;96168.16;10528132;28;1875;-45
2022/10/08 16:46:49;;;;;;;;;;;;;;;20.17;48.56;96169.41;10517812;28;2630;-46
2022/10/08 16:51:49;;;;;;;;;;;;;;;20.18;48.52;96181.53;10520360;28;2548;-47
2022/10/08 16:56:49;;;;;;;;;;;;;;;20.19;48.46;96198.13;10505987;28;2575;-45
2022/10/08 17:01:51;;;;;;;;;;;;;;;20.19;48.69;96200.78;10527553;28;2672;-44
2022/10/08 17:06:51;;;;;;;;;;;;;;;20.18;48.51;96214.97;10526237;28;2621;-46
2022/10/08 17:11:51;;;;;;;;;;;;;;;20.18;48.82;96220.22;10521527;28;1899;-44
2022/10/08 17:16:51;;;;;;;;;;;;;;;20.17;48.58;96234.47;10530002;28;2602;-46
2022/10/08 17:21:52;;;;;;;;;;;;;;;20.17;48.59;96227.31;10520524;28;2610;-44
2022/10/08 17:26:52;;;;;;;;;;;;;;;20.18;48.67;96246.56;10530532;28;2574;-45
2022/10/08 17:31:53;;;;;;;;;;;;;;;20.16;48.61;96246.03;10528101;28;1839;-47
2022/10/08 17:36:53;;;;;;;;;;;;;;;20.15;48.79;96263.66;10529120;28;1967;-45
2022/10/08 17:41:54;;;;;;;;;;;;;;;20.17;48.58;96258.16;10508663;28;2607;-45
2022/10/08 17:46:54;;;;;;;;;;;;;;;20.18;48.70;96267.59;10518580;28;2590;-44
2022/10/08 17:51:55;;;;;;;;;;;;;;;20.17;48.69;96272.06;10523703;28;2684;-45
2022/10/08 17:57:00;;;;;;;;;;;;;;;20.15;48.64;96276.81;10526741;28;2665;-46
2022/10/08 18:02:01;;;;;;;;;;;;;;;20.17;48.55;96281.84;10518477;28;1894;-46
2022/10/08 18:07:01;;;;;;;;;;;;;;;20.17;48.52;96282.59;10503831;28;2139;-45
2022/10/08 18:12:01;;;;;;;;;;;;;;;20.16;48.71;96288.94;10517484;28;2594;-45
2022/10/08 18:17:01;;;;;;;;;;;;;;;20.16;48.66;96293.41;10517216;28;2557;-45
2022/10/08 18:22:02;;;;;;;;;;;;;;;20.14;48.75;96298.13;10519667;28;2586;-45
2022/10/08 18:27:02;;;;;;;;;;;;;;;20.15;48.82;96305.75;10513875;28;2765;-45
2022/10/08 18:32:02;;;;;;;;;;;;;;;20.13;48.80;96312.34;10516297;28;2583;-48
2022/10/08 18:37:03;;;;;;;;;;;;;;;20.15;48.78;96316.28;10514744;28;1916;-47
2022/10/08 18:42:03;;;;;;;;;;;;;;;20.14;48.87;96319.97;10521262;28;1942;-47
2022/10/08 18:47:04;;;;;;;;;;;;;;;20.15;48.66;96326.81;10520404;28;2574;-49
2022/10/08 18:52:04;;;;;;;;;;;;;;;20.16;48.69;96330.25;10524431;28;2729;-48
2022/10/08 18:57:04;;;;;;;;;;;;;;;20.13;48.65;96336.81;10531856;28;1913;-45
2022/10/08 19:02:05;;;;;;;;;;;;;;;20.14;48.56;96342.88;10523332;28;2674;-46
2022/10/08 19:07:05;;;;;;;;;;;;;;;20.14;48.68;96348.13;10527330;28;2753;-47
2022/10/08 19:12:15;;;;;;;;;;;;;;;20.13;48.58;96360.50;10522587;28;2536;-46
2022/10/08 19:17:16;;;;;;;;;;;;;;;20.12;48.54;96372.09;10526452;28;2667;-45
2022/10/08 19:22:16;;;;;;;;;;;;;;;20.14;48.58;96380.53;10525930;28;2607;-46
2022/10/08 19:27:16;;;;;;;;;;;;;;;20.13;48.71;96386.81;10515578;28;2686;-47
2022/10/08 19:32:17;;;;;;;;;;;;;;;20.13;48.55;96386.06;10521919;28;2771;-46
2022/10/08 19:37:17;;;;;;;;;;;;;;;20.14;48.53;96398.16;10516774;28;1934;-48
2022/10/08 19:42:17;;;;;;;;;;;;;;;20.12;48.89;96402.88;10516564;28;2607;-47
2022/10/08 19:47:19;;;;;;;;;;;;;;;20.13;48.72;96413.13;10509046;28;2138;-46
2022/10/08 19:52:19;;;;;;;;;;;;;;;20.14;48.53;96420.00;10513790;28;2553;-45
2022/10/08 19:57:20;;;;;;;;;;;;;;;20.13;48.68;96423.66;10518311;28;1930;-49
2022/10/08 20:02:20;;;;;;;;;;;;;;;20.11;48.62;96425.75;10515086;28;2669;-46
2022/10/08 20:07:21;;;;;;;;;;;;;;;20.14;48.56;96435.78;10516685;28;2599;-45
2022/10/08 20:12:21;;;;;;;;;;;;;;;20.12;48.50;96432.63;10507546;28;2020;-45
2022/10/08 20:17:22;;;;;;;;;;;;;;;20.13;48.64;96439.47;10521738;28;1984;-46
2022/10/08 20:22:22;;;;;;;;;;;;;;;20.14;48.48;96441.06;10511719;28;2584;-46
2022/10/08 20:27:22;;;;;;;;;;;;;;;20.14;48.38;96450.78;10516339;28;3014;-47
2022/10/08 20:32:23;;;;;;;;;;;;;;;20.15;48.55;96452.41;10516551;28;2613;-45
2022/10/08 20:37:23;;;;;;;;;;;;;;;20.15;48.55;96457.66;10517094;28;2675;-46
2022/10/08 20:42:24;;;;;;;;;;;;;;;20.14;48.58;96459.50;10507440;28;2714;-46
2022/10/08 20:47:24;;;;;;;;;;;;;;;20.12;48.51;96463.41;10505692;28;1909;-44
2022/10/08 20:52:24;;;;;;;;;;;;;;;20.13;48.61;96460.53;10509284;28;2558;-46
2022/10/08 20:57:25;;;;;;;;;;;;;;;20.16;48.50;96465.28;10514944;28;2078;-44
2022/10/08 21:02:25;;;;;;;;;;;;;;;20.14;48.38;96467.38;10521022;28;2720;-46
2022/10/08 21:07:25;;;;;;;;;;;;;;;20.15;48.50;96471.59;10511443;28;2417;-44
2022/10/08 21:12:26;;;;;;;;;;;;;;;20.15;48.24;96471.59;10516025;28;1998;-45
2022/10/08 21:17:26;;;;;;;;;;;;;;;20.18;48.21;96473.72;10527044;28;2586;-46
2022/10/08 21:22:26;;;;;;;;;;;;;;;20.17;48.26;96479.25;10519072;28;2602;-45
2022/10/08 21:27:26;;;;;;;;;;;;;;;20.20;48.30;96481.38;10524521;28;1855;-45
2022/10/08 21:32:27;;;;;;;;;;;;;;;20.17;48.37;96481.88;10522099;28;2063;-44
2022/10/08 21:37:27;;;;;;;;;;;;;;;20.16;48.12;96491.63;10517395;28;2523;-45
2022/10/08 21:42:27;;;;;;;;;;;;;;;20.16;48.10;96496.06;10517344;28;2620;-47
2022/10/08 21:47:28;;;;;;;;;;;;;;;20.18;48.25;96499.25;10527270;28;2630;-45
2022/10/08 21:52:28;;;;;;;;;;;;;;;20.18;48.20;96500.06;10529594;28;1899;-44
2022/10/08 21:57:29;;;;;;;;;;;;;;;20.18;48.33;96499.25;10527991;28;2597;-44
2022/10/08 22:02:29;;;;;;;;;;;;;;;20.17;48.15;96508.22;10509388;28;2606;-45
2022/10/08 22:07:29;;;;;;;;;;;;;;;20.15;48.20;96497.13;10509434;28;2591;-44
2022/10/08 22:12:29;;;;;;;;;;;;;;;20.17;48.04;96495.03;10519810;28;1908;-45
2022/10/08 22:17:30;;;;;;;;;;;;;;;20.19;48.08;96495.59;10523925;28;2603;-45
2022/10/08 22:22:30;;;;;;;;;;;;;;;20.16;48.39;96496.06;10517749;28;2591;-47
2022/10/08 22:27:30;;;;;;;;;;;;;;;20.16;48.11;96493.44;10515374;28;2042;-48
2022/10/08 22:32:30;;;;;;;;;;;;;;;20.16;48.17;96491.63;10520228;28;1911;-45
2022/10/08 22:37:31;;;;;;;;;;;;;;;20.17;47.96;96489.78;10517880;28;1978;-44
2022/10/08 22:42:31;;;;;;;;;;;;;;;20.18;48.06;96486.09;10515357;28;2597;-46
2022/10/08 22:47:31;;;;;;;;;;;;;;;20.16;48.33;96488.97;10514813;28;2200;-46
2022/10/08 22:52:31;;;;;;;;;;;;;;;20.16;48.11;96482.91;10525345;28;2613;-44
2022/10/08 22:57:32;;;;;;;;;;;;;;;20.16;48.12;96483.72;10519210;28;1931;-46
2022/10/08 23:02:37;;;;;;;;;;;;;;;20.17;48.00;96492.41;10522962;28;2777;-47
2022/10/08 23:07:43;;;;;;;;;;;;;;;20.17;48.11;96480.03;10495135;28;2606;-45
2022/10/08 23:12:43;;;;;;;;;;;;;;;20.17;47.96;96481.88;10510413;28;2641;-46
2022/10/08 23:17:43;;;;;;;;;;;;;;;20.16;48.12;96477.66;10509975;28;2611;-45
2022/10/08 23:22:44;;;;;;;;;;;;;;;20.15;48.03;96470.81;10513059;28;2597;-46
2022/10/08 23:27:44;;;;;;;;;;;;;;;20.15;48.11;96466.31;10495900;28;2644;-45
2022/10/08 23:32:44;;;;;;;;;;;;;;;20.19;47.84;96469.25;10518954;28;1899;-46
2022/10/08 23:37:47;;;;;;;;;;;;;;;20.14;47.92;96471.84;10515826;28;2662;-46
2022/10/08 23:42:47;;;;;;;;;;;;;;;20.14;47.98;96467.38;10514213;28;2729;-44
2022/10/08 23:47:47;;;;;;;;;;;;;;;20.13;48.09;96470.28;10515903;28;2618;-46
2022/10/08 23:52:48;;;;;;;;;;;;;;;20.14;47.79;96471.84;10512988;28;2609;-44
2022/10/08 23:57:48;;;;;;;;;;;;;;;20.12;48.05;96468.69;10508316;28;2612;-44
